createdAt,value
2023-01-08T00:00:09.757Z,1.56
2023-01-08T00:02:57.132Z,1.56
2023-01-08T00:05:24.129Z,1.53
2023-01-08T00:07:51.343Z,1.55
2023-01-08T00:10:18.236Z,1.55
2023-01-08T00:12:45.414Z,1.56
2023-01-08T00:15:12.386Z,1.57
2023-01-08T00:17:39.687Z,1.58
2023-01-08T00:20:06.991Z,1.61
2023-01-08T00:22:34.185Z,1.63
2023-01-08T00:25:01.036Z,1.64
2023-01-08T00:27:28.297Z,1.63
2023-01-08T00:29:55.279Z,1.63
2023-01-08T00:32:22.479Z,1.65
2023-01-08T00:34:49.475Z,1.63
2023-01-08T00:37:20.225Z,1.65
2023-01-08T00:39:47.056Z,1.64
2023-01-08T00:42:14.365Z,1.63
2023-01-08T00:44:41.300Z,1.62
2023-01-08T00:47:08.549Z,1.63
2023-01-08T00:49:35.427Z,1.66
2023-01-08T00:52:02.627Z,1.70
2023-01-08T00:54:29.812Z,1.71
2023-01-08T00:56:56.965Z,1.71
2023-01-08T00:59:23.897Z,1.70
2023-01-08T01:01:52.964Z,1.72
2023-01-08T01:04:20.819Z,1.76
2023-01-08T01:06:48.055Z,1.75
2023-01-08T01:09:15.022Z,1.75
2023-01-08T01:11:42.317Z,1.75
2023-01-08T01:14:09.909Z,1.75
2023-01-08T01:16:37.261Z,1.73
2023-01-08T01:19:04.259Z,1.71
2023-01-08T01:21:32.532Z,1.72
2023-01-08T01:24:02.198Z,1.73
2023-01-08T01:26:30.513Z,1.73
2023-01-08T01:28:58.430Z,1.73
2023-01-08T01:31:27.105Z,1.69
2023-01-08T01:33:54.125Z,1.66
2023-01-08T01:36:26.091Z,1.64
2023-01-08T01:38:55.745Z,1.57
2023-01-08T01:41:28.661Z,1.54
2023-01-08T01:43:58.035Z,1.51
2023-01-08T01:46:38.793Z,1.44
2023-01-08T01:49:10.687Z,1.42
2023-01-08T01:51:42.430Z,1.41
2023-01-08T01:54:13.037Z,1.38
2023-01-08T01:56:40.945Z,1.37
2023-01-08T01:59:08.015Z,1.33
2023-01-08T02:01:35.719Z,1.28
2023-01-08T02:04:03.036Z,1.19
2023-01-08T02:06:42.681Z,1.09
2023-01-08T02:09:37.551Z,1.02
2023-01-08T02:12:18.748Z,1.02
2023-01-08T02:14:52.307Z,1.04
2023-01-08T02:17:45.589Z,1.05
2023-01-08T02:20:32.709Z,1.02
2023-01-08T02:23:14.454Z,1.00
2023-01-08T02:26:06.455Z,0.97
2023-01-08T02:28:40.133Z,0.94
2023-01-08T02:31:07.635Z,0.90
2023-01-08T02:33:35.921Z,0.88
2023-01-08T02:36:35.873Z,0.83
2023-01-08T02:39:20.981Z,0.77
2023-01-08T02:42:04.482Z,0.77
2023-01-08T02:44:34.446Z,0.76
2023-01-08T02:47:05.875Z,0.73
2023-01-08T02:49:38.580Z,0.68
2023-01-08T02:52:07.553Z,0.60
2023-01-08T02:54:36.023Z,0.53
2023-01-08T02:57:08.319Z,0.46
2023-01-08T02:59:37.268Z,0.44
2023-01-08T03:02:04.770Z,0.39
2023-01-08T03:04:39.588Z,0.36
2023-01-08T03:07:06.511Z,0.35
2023-01-08T03:09:34.609Z,0.32
2023-01-08T03:12:24.693Z,0.30
2023-01-08T03:15:01.330Z,0.33
2023-01-08T03:17:35.936Z,0.36
2023-01-08T03:20:09.251Z,0.40
2023-01-08T03:22:40.872Z,0.42
2023-01-08T03:25:10.068Z,0.49
2023-01-08T03:27:42.024Z,0.56
2023-01-08T03:30:11.473Z,0.64
2023-01-08T03:32:42.133Z,0.69
2023-01-08T03:35:12.481Z,0.71
2023-01-08T03:37:44.225Z,0.72
2023-01-08T03:40:17.064Z,0.74
2023-01-08T03:42:44.061Z,0.78
2023-01-08T03:45:11.447Z,0.83
2023-01-08T03:47:40.608Z,0.88
2023-01-08T03:50:14.547Z,0.93
2023-01-08T03:52:41.478Z,0.96
2023-01-08T03:55:09.118Z,1.01
2023-01-08T03:57:36.049Z,1.02
2023-01-08T04:00:04.589Z,1.03
2023-01-08T04:02:31.684Z,1.03
2023-01-08T04:04:58.924Z,1.07
2023-01-08T04:07:25.876Z,1.06
2023-01-08T04:09:53.112Z,1.10
2023-01-08T04:12:20.041Z,1.14
2023-01-08T04:14:47.299Z,1.18
2023-01-08T04:17:14.616Z,1.21
2023-01-08T04:19:41.744Z,1.20
2023-01-08T04:22:10.850Z,1.19
2023-01-08T04:24:38.368Z,1.16
2023-01-08T04:27:05.612Z,1.10
2023-01-08T04:29:32.863Z,1.13
2023-01-08T04:32:00.451Z,1.18
2023-01-08T04:34:27.688Z,1.19
2023-01-08T04:36:54.578Z,1.22
2023-01-08T04:39:21.751Z,1.25
2023-01-08T04:41:48.602Z,1.30
2023-01-08T04:44:15.834Z,1.32
2023-01-08T04:46:42.822Z,1.33
2023-01-08T04:49:11.657Z,1.36
2023-01-08T04:51:38.751Z,1.37
2023-01-08T04:54:06.277Z,1.40
2023-01-08T04:56:33.197Z,1.41
2023-01-08T04:59:00.486Z,1.43
2023-01-08T05:01:28.464Z,1.45
2023-01-08T05:03:56.521Z,1.47
2023-01-08T05:06:24.002Z,1.45
2023-01-08T05:08:51.256Z,1.48
2023-01-08T05:11:18.263Z,1.49
2023-01-08T05:13:49.064Z,1.51
2023-01-08T05:16:16.313Z,1.52
2023-01-08T05:18:44.582Z,1.45
2023-01-08T05:21:11.919Z,1.45
2023-01-08T05:23:39.520Z,1.45
2023-01-08T05:26:07.429Z,1.44
2023-01-08T05:28:34.987Z,1.42
2023-01-08T05:31:01.933Z,1.42
2023-01-08T05:33:29.189Z,1.40
2023-01-08T05:35:56.680Z,1.36
2023-01-08T05:38:23.948Z,1.32
2023-01-08T05:40:54.330Z,1.33
2023-01-08T05:43:21.744Z,1.33
2023-01-08T05:45:48.595Z,1.28
2023-01-08T05:48:15.816Z,1.23
2023-01-08T05:50:42.675Z,1.28
2023-01-08T05:53:10.315Z,1.23
2023-01-08T05:55:37.255Z,1.25
2023-01-08T05:58:05.429Z,1.25
2023-01-08T06:00:34.447Z,1.26
2023-01-08T06:03:01.758Z,1.24
2023-01-08T06:05:30.798Z,1.23
2023-01-08T06:07:58.243Z,1.14
2023-01-08T06:10:25.487Z,1.16
2023-01-08T06:12:52.738Z,1.13
2023-01-08T06:15:19.737Z,1.13
2023-01-08T06:17:46.876Z,1.15
2023-01-08T06:20:13.805Z,1.19
2023-01-08T06:22:40.979Z,1.21
2023-01-08T06:25:08.116Z,1.20
2023-01-08T06:27:35.288Z,1.16
2023-01-08T06:30:02.133Z,1.19
2023-01-08T06:32:29.388Z,1.22
2023-01-08T06:34:56.281Z,1.24
2023-01-08T06:37:23.449Z,1.19
2023-01-08T06:39:50.361Z,1.21
2023-01-08T06:42:17.625Z,1.22
2023-01-08T06:44:44.569Z,1.22
2023-01-08T06:47:11.769Z,1.26
2023-01-08T06:49:38.727Z,1.34
2023-01-08T06:52:05.942Z,1.38
2023-01-08T06:54:32.840Z,1.41
2023-01-08T06:57:00.072Z,1.45
2023-01-08T06:59:26.957Z,1.50
2023-01-08T07:01:54.531Z,1.55
2023-01-08T07:04:21.494Z,1.58
2023-01-08T07:06:48.741Z,1.60
2023-01-08T07:09:15.933Z,1.62
2023-01-08T07:11:43.208Z,1.65
2023-01-08T07:14:10.148Z,1.66
2023-01-08T07:16:37.539Z,1.70
2023-01-08T07:19:04.654Z,1.70
2023-01-08T07:21:32.118Z,1.74
2023-01-08T07:23:59.764Z,1.77
2023-01-08T07:26:27.775Z,1.80
2023-01-08T07:28:54.680Z,1.85
2023-01-08T07:31:22.212Z,1.88
2023-01-08T07:33:49.215Z,1.90
2023-01-08T07:36:17.930Z,1.92
2023-01-08T07:38:44.796Z,1.95
2023-01-08T07:41:13.368Z,1.95
2023-01-08T07:43:40.275Z,1.99
2023-01-08T07:46:07.535Z,2.03
2023-01-08T07:48:34.571Z,2.06
2023-01-08T07:51:06.508Z,2.05
2023-01-08T07:53:33.999Z,2.06
2023-01-08T07:56:05.924Z,2.06
2023-01-08T07:58:33.076Z,2.06
2023-01-08T08:01:00.853Z,2.07
2023-01-08T08:03:27.974Z,2.10
2023-01-08T08:05:55.207Z,2.14
2023-01-08T08:08:22.081Z,2.19
2023-01-08T08:10:49.263Z,2.19
2023-01-08T08:13:16.164Z,2.22
2023-01-08T08:15:43.483Z,2.29
2023-01-08T08:18:11.061Z,2.36
2023-01-08T08:20:39.322Z,2.40
2023-01-08T08:23:09.548Z,2.45
2023-01-08T08:25:37.348Z,2.48
2023-01-08T08:28:05.146Z,2.54
2023-01-08T08:30:34.867Z,2.60
2023-01-08T08:33:04.124Z,2.64
2023-01-08T08:35:32.516Z,2.67
2023-01-08T08:38:00.036Z,2.70
2023-01-08T08:40:27.874Z,2.73
2023-01-08T08:42:59.765Z,2.75
2023-01-08T08:45:27.880Z,2.79
2023-01-08T08:47:54.972Z,2.83
2023-01-08T08:50:23.023Z,2.88
2023-01-08T08:52:50.020Z,2.91
2023-01-08T08:55:17.662Z,2.92
2023-01-08T08:57:46.286Z,2.93
2023-01-08T09:00:14.784Z,2.93
2023-01-08T09:02:41.796Z,2.96
2023-01-08T09:05:09.678Z,3.00
2023-01-08T09:07:36.667Z,3.05
2023-01-08T09:10:04.721Z,3.12
2023-01-08T09:12:31.587Z,3.16
2023-01-08T09:14:58.821Z,3.21
2023-01-08T09:17:26.102Z,3.29
2023-01-08T09:19:53.571Z,3.37
2023-01-08T09:22:20.740Z,3.45
2023-01-08T09:24:48.071Z,3.49
2023-01-08T09:27:15.453Z,3.54
2023-01-08T09:29:42.771Z,3.62
2023-01-08T09:32:10.118Z,3.72
2023-01-08T09:34:38.306Z,3.81
2023-01-08T09:37:06.145Z,3.87
2023-01-08T09:39:33.875Z,3.93
2023-01-08T09:42:06.053Z,3.96
2023-01-08T09:44:40.717Z,3.98
2023-01-08T09:47:27.886Z,4.05
2023-01-08T09:50:00.244Z,4.10
2023-01-08T09:52:27.334Z,4.16
2023-01-08T09:54:54.844Z,4.21
2023-01-08T09:57:22.693Z,4.16
2023-01-08T09:59:50.555Z,4.13
2023-01-08T10:02:25.048Z,4.12
2023-01-08T10:04:58.537Z,4.05
2023-01-08T10:07:27.393Z,3.95
2023-01-08T10:09:55.058Z,3.87
2023-01-08T10:12:31.207Z,3.81
2023-01-08T10:15:13.846Z,3.79
2023-01-08T10:17:46.537Z,3.82
2023-01-08T10:20:19.609Z,3.81
2023-01-08T10:22:50.211Z,3.84
2023-01-08T10:25:27.412Z,3.84
2023-01-08T10:27:59.207Z,3.83
2023-01-08T10:30:40.132Z,3.81
2023-01-08T10:33:45.328Z,3.79
2023-01-08T10:36:17.349Z,3.79
2023-01-08T10:38:56.167Z,3.78
2023-01-08T10:41:23.508Z,3.76
2023-01-08T10:44:01.836Z,3.76
2023-01-08T10:46:35.943Z,3.82
2023-01-08T10:49:05.685Z,3.85
2023-01-08T10:51:33.558Z,3.91
2023-01-08T10:54:13.999Z,3.95
2023-01-08T10:56:43.844Z,3.99
2023-01-08T10:59:20.810Z,4.01
2023-01-08T11:01:49.395Z,4.06
2023-01-08T11:04:24.091Z,3.99
2023-01-08T11:06:51.342Z,4.00
2023-01-08T11:09:27.967Z,4.04
2023-01-08T11:11:55.594Z,4.08
2023-01-08T11:14:36.006Z,4.04
2023-01-08T11:17:11.412Z,4.05
2023-01-08T11:19:39.989Z,4.04
2023-01-08T11:22:19.596Z,4.04
2023-01-08T11:24:50.391Z,4.00
2023-01-08T11:27:28.164Z,3.94
2023-01-08T11:30:14.695Z,3.89
2023-01-08T11:33:09.448Z,3.86
2023-01-08T11:35:48.778Z,3.81
2023-01-08T11:38:16.693Z,3.77
2023-01-08T11:41:13.688Z,3.77
2023-01-08T11:44:09.679Z,3.74
2023-01-08T11:46:56.365Z,3.73
2023-01-08T11:49:40.229Z,3.72
2023-01-08T11:52:07.062Z,3.75
2023-01-08T11:54:40.089Z,3.75
2023-01-08T11:57:35.009Z,3.74
2023-01-08T12:00:14.265Z,3.76
2023-01-08T12:02:54.814Z,3.71
2023-01-08T12:05:24.319Z,3.72
2023-01-08T12:08:20.490Z,3.71
2023-01-08T12:11:06.442Z,3.73
2023-01-08T12:13:47.961Z,3.74
2023-01-08T12:16:27.550Z,3.74
2023-01-08T12:19:06.597Z,3.79
2023-01-08T12:21:44.643Z,3.78
2023-01-08T12:24:14.370Z,3.77
2023-01-08T12:27:09.416Z,3.77
2023-01-08T12:29:52.498Z,3.81
2023-01-08T12:32:27.603Z,3.86
2023-01-08T12:35:10.719Z,3.81
2023-01-08T12:38:11.002Z,3.74
2023-01-08T12:40:46.169Z,3.71
2023-01-08T12:43:19.072Z,3.63
2023-01-08T12:45:48.698Z,3.59
2023-01-08T12:48:23.180Z,3.51
2023-01-08T12:50:59.818Z,3.45
2023-01-08T12:53:34.882Z,3.39
2023-01-08T12:56:21.336Z,3.32
2023-01-08T12:59:14.439Z,3.30
2023-01-08T13:02:08.979Z,3.31
2023-01-08T13:04:41.613Z,3.28
2023-01-08T13:07:32.290Z,3.30
2023-01-08T13:10:20.347Z,3.30
2023-01-08T13:12:51.607Z,3.36
2023-01-08T13:15:22.344Z,3.46
2023-01-08T13:17:55.156Z,3.52
2023-01-08T13:20:29.047Z,3.62
2023-01-08T13:23:01.719Z,3.68
2023-01-08T13:25:36.395Z,3.63
2023-01-08T13:28:25.146Z,3.64
2023-01-08T13:30:52.537Z,3.58
2023-01-08T13:33:47.207Z,3.60
2023-01-08T13:36:29.399Z,3.56
2023-01-08T13:39:10.149Z,3.57
2023-01-08T13:41:42.608Z,3.57
2023-01-08T13:44:20.578Z,3.53
2023-01-08T13:47:04.740Z,3.53
2023-01-08T13:49:46.681Z,3.52
2023-01-08T13:52:42.764Z,3.54
2023-01-08T13:55:15.190Z,3.57
2023-01-08T13:57:46.574Z,3.60
2023-01-08T14:00:43.200Z,3.63
2023-01-08T14:03:35.334Z,3.66
2023-01-08T14:06:06.953Z,3.68
2023-01-08T14:08:34.463Z,3.74
2023-01-08T14:11:04.322Z,3.77
2023-01-08T14:13:35.755Z,3.81
2023-01-08T14:16:05.972Z,3.85
2023-01-08T14:18:33.397Z,3.88
2023-01-08T14:21:00.350Z,3.89
2023-01-08T14:23:32.118Z,3.91
2023-01-08T14:26:06.408Z,3.93
2023-01-08T14:28:33.622Z,3.87
2023-01-08T14:31:00.798Z,3.86
2023-01-08T14:33:34.752Z,3.85
2023-01-08T14:36:03.952Z,3.87
2023-01-08T14:38:31.229Z,3.85
2023-01-08T14:41:03.813Z,3.83
2023-01-08T14:43:38.870Z,3.86
2023-01-08T14:46:32.245Z,3.84
2023-01-08T14:48:59.635Z,3.86
2023-01-08T14:51:29.583Z,3.86
2023-01-08T14:54:03.719Z,3.87
2023-01-08T14:56:33.530Z,3.86
2023-01-08T14:59:07.428Z,3.89
2023-01-08T15:01:35.186Z,3.87
2023-01-08T15:04:06.893Z,3.85
2023-01-08T15:06:34.034Z,3.84
2023-01-08T15:09:01.382Z,3.84
2023-01-08T15:11:32.127Z,3.84
2023-01-08T15:14:00.770Z,3.87
2023-01-08T15:16:44.622Z,3.87
2023-01-08T15:19:46.608Z,3.87
2023-01-08T15:22:19.001Z,3.87
2023-01-08T15:24:58.328Z,3.85
2023-01-08T15:27:25.689Z,3.84
2023-01-08T15:29:59.897Z,3.82
2023-01-08T15:32:31.373Z,3.78
2023-01-08T15:34:58.951Z,3.77
2023-01-08T15:37:25.865Z,3.76
2023-01-08T15:39:53.755Z,3.75
2023-01-08T15:42:42.360Z,3.75
2023-01-08T15:45:13.394Z,3.75
2023-01-08T15:47:40.285Z,3.77
2023-01-08T15:50:07.870Z,3.77
2023-01-08T15:52:37.784Z,3.81
2023-01-08T15:55:05.638Z,3.82
2023-01-08T15:57:32.791Z,3.82
2023-01-08T16:00:00.048Z,3.84
2023-01-08T16:02:27.079Z,3.86
2023-01-08T16:04:56.066Z,3.86
2023-01-08T16:07:23.301Z,3.87
2023-01-08T16:09:50.514Z,3.89
2023-01-08T16:12:17.383Z,3.86
2023-01-08T16:14:44.605Z,3.83
2023-01-08T16:17:11.644Z,3.84
2023-01-08T16:19:38.918Z,3.84
2023-01-08T16:22:05.933Z,3.84
2023-01-08T16:24:34.136Z,3.82
2023-01-08T16:27:01.236Z,3.83
2023-01-08T16:29:28.708Z,3.81
2023-01-08T16:31:56.017Z,3.79
2023-01-08T16:34:24.211Z,3.82
2023-01-08T16:36:51.379Z,3.81
2023-01-08T16:39:19.383Z,3.79
2023-01-08T16:41:47.835Z,3.79
2023-01-08T16:44:20.871Z,3.81
2023-01-08T16:46:48.459Z,3.83
2023-01-08T16:49:16.112Z,3.82
2023-01-08T16:51:44.586Z,3.77
2023-01-08T16:54:13.345Z,3.77
2023-01-08T16:56:40.651Z,3.74
2023-01-08T16:59:18.270Z,3.74
2023-01-08T17:01:49.625Z,3.70
2023-01-08T17:04:17.484Z,3.69
2023-01-08T17:06:44.695Z,3.68
2023-01-08T17:09:12.001Z,3.62
2023-01-08T17:11:38.969Z,3.60
2023-01-08T17:14:06.253Z,3.49
2023-01-08T17:16:33.255Z,3.45
2023-01-08T17:19:00.504Z,3.40
2023-01-08T17:21:27.354Z,3.35
2023-01-08T17:23:54.581Z,3.31
2023-01-08T17:26:21.634Z,3.23
2023-01-08T17:28:48.921Z,3.18
2023-01-08T17:31:20.644Z,3.13
2023-01-08T17:33:52.306Z,3.07
2023-01-08T17:36:24.936Z,2.99
2023-01-08T17:38:55.062Z,2.95
2023-01-08T17:41:41.352Z,2.90
2023-01-08T17:44:11.871Z,2.79
2023-01-08T17:46:45.352Z,2.69
2023-01-08T17:49:14.288Z,2.66
2023-01-08T17:51:42.457Z,2.60
2023-01-08T17:54:15.277Z,2.58
2023-01-08T17:56:42.559Z,2.59
2023-01-08T17:59:14.295Z,2.55
2023-01-08T18:01:41.789Z,2.54
2023-01-08T18:04:09.112Z,2.52
2023-01-08T18:06:36.163Z,2.49
2023-01-08T18:09:04.455Z,2.43
2023-01-08T18:11:31.576Z,2.38
2023-01-08T18:14:01.526Z,2.27
2023-01-08T18:16:30.084Z,2.19
2023-01-08T18:18:58.372Z,2.11
2023-01-08T18:21:26.680Z,2.05
2023-01-08T18:23:54.270Z,2.02
2023-01-08T18:26:22.249Z,2.01
2023-01-08T18:28:49.496Z,2.00
2023-01-08T18:31:16.479Z,1.98
2023-01-08T18:33:44.137Z,1.95
2023-01-08T18:36:12.973Z,1.89
2023-01-08T18:38:42.673Z,1.86
2023-01-08T18:41:34.293Z,1.79
2023-01-08T18:44:02.748Z,1.73
2023-01-08T18:46:29.771Z,1.65
2023-01-08T18:48:57.065Z,1.63
2023-01-08T18:51:24.239Z,1.62
2023-01-08T18:53:51.528Z,1.59
2023-01-08T18:56:33.401Z,1.55
2023-01-08T18:59:01.109Z,1.54
2023-01-08T19:01:28.672Z,1.50
2023-01-08T19:03:56.373Z,1.48
2023-01-08T19:06:23.763Z,1.45
2023-01-08T19:08:51.668Z,1.45
2023-01-08T19:11:18.776Z,1.47
2023-01-08T19:13:46.031Z,1.41
2023-01-08T19:16:13.875Z,1.37
2023-01-08T19:18:41.458Z,1.38
2023-01-08T19:21:10.025Z,1.37
2023-01-08T19:23:37.284Z,1.37
2023-01-08T19:26:08.517Z,1.34
2023-01-08T19:28:36.272Z,1.33
2023-01-08T19:31:03.311Z,1.34
2023-01-08T19:33:30.902Z,1.36
2023-01-08T19:36:03.227Z,1.38
2023-01-08T19:38:30.486Z,1.43
2023-01-08T19:41:00.252Z,1.39
2023-01-08T19:43:42.754Z,1.34
2023-01-08T19:46:11.892Z,1.36
2023-01-08T19:48:40.348Z,1.43
2023-01-08T19:51:11.899Z,1.52
2023-01-08T19:53:40.049Z,1.62
2023-01-08T19:56:13.272Z,1.70
2023-01-08T19:58:40.827Z,1.77
2023-01-08T20:01:16.435Z,1.85
2023-01-08T20:03:44.597Z,1.97
2023-01-08T20:06:16.370Z,2.07
2023-01-08T20:08:46.144Z,2.16
2023-01-08T20:11:15.606Z,2.21
2023-01-08T20:13:43.757Z,2.28
2023-01-08T20:16:17.345Z,2.36
2023-01-08T20:18:44.667Z,2.44
2023-01-08T20:21:16.854Z,2.46
2023-01-08T20:23:45.228Z,2.49
2023-01-08T20:26:18.344Z,2.50
2023-01-08T20:28:46.565Z,2.53
2023-01-08T20:31:16.058Z,2.55
2023-01-08T20:33:44.432Z,2.59
2023-01-08T20:36:17.474Z,2.61
2023-01-08T20:38:45.705Z,2.60
2023-01-08T20:41:13.133Z,2.60
2023-01-08T20:43:41.104Z,2.63
2023-01-08T20:46:10.403Z,2.63
2023-01-08T20:48:47.039Z,2.66
2023-01-08T20:51:14.996Z,2.67
2023-01-08T20:53:42.332Z,2.69
2023-01-08T20:56:12.750Z,2.72
2023-01-08T20:58:42.294Z,2.72
2023-01-08T21:01:10.992Z,2.65
2023-01-08T21:03:39.808Z,2.68
2023-01-08T21:06:08.999Z,2.66
2023-01-08T21:08:37.035Z,2.66
2023-01-08T21:11:06.231Z,2.65
2023-01-08T21:13:34.171Z,2.65
2023-01-08T21:16:09.734Z,2.66
2023-01-08T21:18:40.476Z,2.68
2023-01-08T21:21:08.142Z,2.70
2023-01-08T21:23:35.423Z,2.74
2023-01-08T21:26:05.717Z,2.74
2023-01-08T21:28:33.429Z,2.79
2023-01-08T21:31:06.987Z,2.81
2023-01-08T21:33:34.471Z,2.84
2023-01-08T21:36:07.104Z,2.88
2023-01-08T21:38:35.016Z,2.92
2023-01-08T21:41:04.438Z,2.94
2023-01-08T21:43:50.776Z,2.89
2023-01-08T21:46:17.957Z,2.84
2023-01-08T21:48:50.011Z,2.87
2023-01-08T21:51:36.073Z,2.88
2023-01-08T21:54:03.860Z,2.96
2023-01-08T21:56:31.310Z,2.99
2023-01-08T21:58:58.719Z,3.07
2023-01-08T22:01:25.713Z,3.12
2023-01-08T22:03:53.046Z,3.20
2023-01-08T22:06:19.994Z,3.27
2023-01-08T22:08:51.733Z,3.32
2023-01-08T22:11:19.227Z,3.39
2023-01-08T22:13:46.400Z,3.42
2023-01-08T22:16:13.789Z,3.46
2023-01-08T22:18:41.334Z,3.46
2023-01-08T22:21:11.002Z,3.46
2023-01-08T22:23:38.523Z,3.46
2023-01-08T22:26:07.142Z,3.47
2023-01-08T22:28:34.936Z,3.42
2023-01-08T22:31:12.411Z,3.42
2023-01-08T22:33:40.391Z,3.40
2023-01-08T22:36:10.541Z,3.39
2023-01-08T22:38:38.299Z,3.40
2023-01-08T22:41:10.921Z,3.42
2023-01-08T22:43:38.053Z,3.38
2023-01-08T22:46:05.086Z,3.38
2023-01-08T22:48:32.554Z,3.39
2023-01-08T22:51:03.543Z,3.40
2023-01-08T22:53:30.708Z,3.39
2023-01-08T22:55:57.602Z,3.36
2023-01-08T22:58:24.908Z,3.32
2023-01-08T23:00:51.774Z,3.31
2023-01-08T23:03:18.993Z,3.29
2023-01-08T23:05:45.855Z,3.29
2023-01-08T23:08:13.051Z,3.29
2023-01-08T23:10:40.038Z,3.33
2023-01-08T23:13:07.298Z,3.37
2023-01-08T23:15:34.241Z,3.37
2023-01-08T23:18:01.409Z,3.31
2023-01-08T23:20:28.264Z,3.27
2023-01-08T23:22:55.421Z,3.24
2023-01-08T23:25:22.241Z,3.26
2023-01-08T23:27:49.434Z,3.36
2023-01-08T23:30:16.586Z,3.50
2023-01-08T23:32:43.785Z,3.70
2023-01-08T23:35:10.735Z,3.94
2023-01-08T23:37:38.015Z,4.10
2023-01-08T23:40:05.263Z,4.19
2023-01-08T23:42:32.545Z,4.22
2023-01-08T23:44:59.433Z,4.23
2023-01-08T23:47:26.613Z,4.21
2023-01-08T23:49:53.489Z,4.15
2023-01-08T23:52:20.696Z,4.10
2023-01-08T23:54:47.684Z,4.10
2023-01-08T23:57:14.888Z,4.04
2023-01-08T23:59:41.856Z,3.91
